Durango Ski Resort, Colorado Weather observations

Data are for observation ending at time listed.
 Day   Time    Ave.   Ave.  Ave.  Vector   Max.    Total    Solar   Ave.  
  of    of     Air    Rel.  Wind   Wind    Wind   Precip.   Rad.    Soil  
Year   Day     Temp.  Hum.  Speed  Dir.    Gust                     Temp. 
2015   (PST)    F      %     mph   deg.    mph      in.     W/m2     F   
------------------------------------------------------------------------------
 210   16:10   58.4    50    9.8   153     15.5    99999.00   99999    99999.0
 210   16:20   57.2    51    8.8   152     13.8    99999.00   99999    99999.0
 210   16:30   56.9    54    9.1   158     13.8    99999.00   99999    99999.0
 210   16:40   57.4    53    8.3   165     11.6    99999.00   99999    99999.0
 210   16:50   57.6    52    7.6   163     11.2    99999.00   99999    99999.0
 210   17:00   57.7    52    6.8   168     11.2    99999.00   99999    99999.0
 210   17:10   57.7    52    5.9   164      8.2    99999.00   99999    99999.0
 210   17:20   57.1    53    6.5   166      9.5    99999.00   99999    99999.0
 210   17:30   56.8    55    4.7   164      6.9    99999.00   99999    99999.0
 210   17:40   56.9    58    1.3   141      6.9    99999.00   99999    99999.0
 210   17:50   56.5    58    2.7   162      6.5    99999.00   99999    99999.0
 210   18:00   56.1    58    2.3   165      6.1    99999.00   99999    99999.0
 210   18:10   56.0    59    0.4   165      4.8    99999.00   99999    99999.0
 210   18:20   56.0    59    0.0     0      0.0    99999.00   99999    99999.0
 210   18:30   56.3    58    0.0     0      0.0    99999.00   99999    99999.0
 210   18:40   56.6    56    0.0     0      0.0    99999.00   99999    99999.0
 210   18:50   57.7    54    0.0     0      0.0    99999.00   99999    99999.0
 210   19:00   57.1    54    0.0     0      0.0    99999.00   99999    99999.0
 210   19:10   56.9    56    0.0     0      0.0    99999.00   99999    99999.0
 210   19:20   55.3    61    0.0     0      0.0    99999.00   99999    99999.0
 210   19:30   54.2    61    0.0     0      0.0    99999.00   99999    99999.0
 210   19:40   54.2    61    0.0     0      0.0    99999.00   99999    99999.0
 210   19:50   54.2    59    0.0     0      0.0    99999.00   99999    99999.0
 210   20:00   54.4    59    0.0     0      0.0    99999.00   99999    99999.0
 210   20:10   54.2    58    0.1   164      3.5    99999.00   99999    99999.0
 210   20:20   53.9    57    0.0     0      0.0    99999.00   99999    99999.0
 210   20:30   53.5    56    0.0     0      0.0    99999.00   99999    99999.0
 210   20:40   53.2    58    0.0     0      0.0    99999.00   99999    99999.0
 210   20:50   53.1    59    0.0     0      0.0    99999.00   99999    99999.0
 210   21:00   53.2    58    0.0     0      0.0    99999.00   99999    99999.0
 210   21:10   53.1    57    0.0     0      0.0    99999.00   99999    99999.0
 210   21:20   53.1    58    0.0     0      0.0    99999.00   99999    99999.0
 210   21:30   53.1    58    0.0     0      0.0    99999.00   99999    99999.0
 210   21:40   53.0    60    0.0     0      0.0    99999.00   99999    99999.0
 210   21:50   53.0    60    0.0     0      0.0    99999.00   99999    99999.0
 210   22:00   53.2    60    0.0     0      0.0    99999.00   99999    99999.0
 210   22:10   53.3    60    0.0     0      0.0    99999.00   99999    99999.0
 210   22:20   53.4    56    0.0     0      0.0    99999.00   99999    99999.0
 210   22:30   53.2    58    0.0     0      0.0    99999.00   99999    99999.0
 210   22:40   52.7    62    0.0     0      0.0    99999.00   99999    99999.0
 210   22:50   52.9    59    0.0     0      0.0    99999.00   99999    99999.0
 210   23:00   52.6    63    0.0     0      0.0    99999.00   99999    99999.0
 210   23:10   52.9    61    0.0     0      0.0    99999.00   99999    99999.0
 210   23:20   52.9    61    0.0     0      0.0    99999.00   99999    99999.0
 210   23:30   52.8    61    1.6   104      5.7    99999.00   99999    99999.0
 210   23:40   53.0    60    4.0   104      5.2    99999.00   99999    99999.0
 210   23:50   53.0    60    4.0   104      5.2    99999.00   99999    99999.0
 211    0:00   52.2    64    4.8   118      6.1    99999.00   99999    99999.0
 211    0:10   52.2    64    4.6   137      5.2    99999.00   99999    99999.0
 211    0:20   51.7    66    1.2   137      4.4    99999.00   99999    99999.0
 211    0:30   51.4    66    0.0     0      0.0    99999.00   99999    99999.0
 211    0:40   51.6    67    0.0     0      0.0    99999.00   99999    99999.0
 211    0:50   51.0    68    0.0     0      0.0    99999.00   99999    99999.0
 211    1:00   51.2    68    0.0     0      0.0    99999.00   99999    99999.0
 211    1:10   51.4    67    0.0     0      0.0    99999.00   99999    99999.0
 211    1:20   51.0    67    0.0     0      0.0    99999.00   99999    99999.0
 211    1:30   50.8    68    0.0     0      0.0    99999.00   99999    99999.0
 211    1:40   50.3    70    0.0     0      0.0    99999.00   99999    99999.0
 211    1:50   49.5    72    0.0     0      0.0    99999.00   99999    99999.0
 211    2:00   49.1    72    0.0     0      0.0    99999.00   99999    99999.0
 211    2:10   48.9    73    0.0     0      0.0    99999.00   99999    99999.0
 211    2:20   48.7    74    0.0     0      0.0    99999.00   99999    99999.0
 211    2:30   49.0    73    0.0     0      0.0    99999.00   99999    99999.0
 211    2:40   49.2    72    0.0     0      0.0    99999.00   99999    99999.0
 211    2:50   49.1    73    0.0     0      0.0    99999.00   99999    99999.0
 211    3:00   48.9    74    0.0     0      0.0    99999.00   99999    99999.0
 211    3:10   49.0    73    0.0     0      0.0    99999.00   99999    99999.0
 211    3:20   49.3    72    0.0     0      0.0    99999.00   99999    99999.0
 211    3:30   49.2    72    0.0     0      0.0    99999.00   99999    99999.0
 211    3:40   49.1    73    0.0     0      0.0    99999.00   99999    99999.0
 211    3:50   49.0    73    0.0     0      0.0    99999.00   99999    99999.0
 211    4:00   48.8    74    0.0     0      0.0    99999.00   99999    99999.0
 211    4:10   48.5    78    0.0     0      0.0    99999.00   99999    99999.0
 211    4:20   48.5    80    0.0     0      0.0    99999.00   99999    99999.0
 211    4:30   48.4    80    0.0     0      0.0    99999.00   99999    99999.0
 211    4:40   48.3    80    0.0     0      0.0    99999.00   99999    99999.0
 211    4:50   48.3    80    0.0     0      0.0    99999.00   99999    99999.0
 211    5:00   48.3    80    0.0     0      0.0    99999.00   99999    99999.0
 211    5:10   48.1    80    0.0     0      0.0    99999.00   99999    99999.0
 211    5:20   48.1    80    0.0     0      0.0    99999.00   99999    99999.0
 211    5:30   48.0    80    4.5   174      6.1    99999.00   99999    99999.0
 211    5:40   48.6    75    4.3     2      5.7    99999.00   99999    99999.0
 211    5:50   51.1    64    0.2     1      4.8    99999.00   99999    99999.0
 211    6:00   52.6    54    0.0     0      0.0    99999.00   99999    99999.0
 211    6:10   54.1    50    0.0     0      0.0    99999.00   99999    99999.0
 211    6:20   55.4    48    0.0     0      0.0    99999.00   99999    99999.0
 211    6:30   56.5    47    0.0     0      0.0    99999.00   99999    99999.0
 211    6:40   55.9    43    0.0     0      0.0    99999.00   99999    99999.0
 211    6:50   55.1    38    0.7    43      8.6    99999.00   99999    99999.0
 211    7:00   54.8    38    2.9    28      9.1    99999.00   99999    99999.0
 211    7:10   55.7    33    1.1    45      5.2    99999.00   99999    99999.0
 211    7:20   56.2    32    0.8    35      6.9    99999.00   99999    99999.0
 211    7:30   57.1    33    0.2    43      3.9    99999.00   99999    99999.0
 211    7:40   57.9    34    0.1     3      3.9    99999.00   99999    99999.0
 211    7:50   58.1    34    0.2    51      4.8    99999.00   99999    99999.0
 211    8:00   58.0    34    0.3    72      4.8    99999.00   99999    99999.0
 211    8:10   57.3    36    1.5    55      7.8    99999.00   99999    99999.0
 211    8:20   57.6    33    2.7     9      7.8    99999.00   99999    99999.0
 211    8:30   57.7    35    0.1   358      3.1    99999.00   99999    99999.0
 211    8:40   57.5    35    0.0     0      0.0    99999.00   99999    99999.0
 211    8:50   57.7    36    0.0     0      0.0    99999.00   99999    99999.0
 211    9:00   58.1    36    1.0   357      4.8    99999.00   99999    99999.0
 211    9:10   59.2    34    2.4   360      6.5    99999.00   99999    99999.0
 211    9:20   59.6    32    2.9    11      8.6    99999.00   99999    99999.0
 211    9:30   59.8    32    6.1     8     12.1    99999.00   99999    99999.0
 211    9:40   60.6    30    4.3    13     11.2    99999.00   99999    99999.0
 211    9:50   61.4    29    5.0    15     11.6    99999.00   99999    99999.0
 211   10:00   62.1    28    3.0    15      9.5    99999.00   99999    99999.0
 211   10:10   62.4    26    4.7     9      8.2    99999.00   99999    99999.0
 211   10:20   61.8    25    4.8    16      8.2    99999.00   99999    99999.0
 211   10:30   63.0    25    4.4    68      7.8    99999.00   99999    99999.0
 211   10:40   62.6    22    5.5    91     10.8    99999.00   99999    99999.0
 211   10:50   63.7    24    2.6    82      6.5    99999.00   99999    99999.0
 211   11:00   63.9    27    0.4    75      4.4    99999.00   99999    99999.0
 211   11:10   63.6    34    1.7   103      6.1    99999.00   99999    99999.0
 211   11:20   63.8    40    4.8   183     11.2    99999.00   99999    99999.0
 211   11:30   63.2    43    2.0   187      6.5    99999.00   99999    99999.0
 211   11:40   64.2    47    6.4   177     10.8    99999.00   99999    99999.0
 211   11:50   64.2    45    7.4   168     11.6    99999.00   99999    99999.0
 211   12:00   63.1    49    6.9   165     10.3    99999.00   99999    99999.0
 211   12:10   64.6    49    7.0   169     11.2    99999.00   99999    99999.0
 211   12:20   63.8    48    7.3   171     10.8    99999.00   99999    99999.0
 211   12:30   64.7    46    6.5   171     11.2    99999.00   99999    99999.0
 211   12:40   63.8    47    5.3   143     10.3    99999.00   99999    99999.0
 211   12:50   61.7    51    5.1   170     12.9    99999.00   99999    99999.0
 211   13:00   59.0    54    8.4   189     14.2    99999.00   99999    99999.0
 211   13:10   58.5    53    7.7   190     12.1    99999.00   99999    99999.0
 211   13:20   58.2    55    7.0   180     11.6    99999.00   99999    99999.0
 211   13:30   58.1    55    6.1   166      9.9    99999.00   99999    99999.0
 211   13:40   57.4    60    7.4   186     12.5    99999.00   99999    99999.0
 211   13:50   55.9    67   10.3   205     15.5    99999.00   99999    99999.0
 211   14:00   55.7    64    8.7   201     11.6    99999.00   99999    99999.0
 211   14:10   56.9    58    6.4   199      9.9    99999.00   99999    99999.0
 211   14:20   58.2    53    5.4   210      8.2    99999.00   99999    99999.0
 211   14:30   59.2    51    0.8   214      4.4    99999.00   99999    99999.0
 211   14:40   59.7    50    0.0     0      0.0    99999.00   99999    99999.0
 211   14:50   60.7    44    0.0     0      0.0    99999.00   99999    99999.0
 211   15:00   62.7    42    2.9   309      8.6    99999.00   99999    99999.0
 211   15:10   62.4    39    3.1   324      7.8    99999.00   99999    99999.0
 211   15:20   61.7    39    3.1   264      8.6    99999.00   99999    99999.0
 211   15:30   61.6    40    0.6   204      6.1    99999.00   99999    99999.0
 211   15:40   60.0    41    0.3   224      4.8    99999.00   99999    99999.0
 211   15:50   60.0    43    0.0     0      0.0    99999.00   99999    99999.0
 211   16:00   60.0    44    0.0     0      0.0    99999.00   99999    99999.0

Return to Durango Ski Resort, Colorado graphs page.


Western Regional Climate Center,wrcc@dri.edu